Time;durP1;ratioP1;P1;durP2;ratioP2;P2;SDS_P1;SDS_P2;PMS_P1;PMS_P2;Temp;Humidity;BMP_temperature;BMP_pressure;BME280_temperature;BME280_humidity;BME280_pressure;Samples;Min_cycle;Max_cycle;Signal;HPM_P1;HPM_P2
2024/03/02 00:00:21;;;;;;;4.22;3.30;;;7.50;99.90;;;;;;5030920;28;20052;-74
2024/03/02 00:02:49;;;;;;;5.78;3.67;;;7.50;99.90;;;;;;5050390;28;20080;-74
2024/03/02 00:05:19;;;;;;;5.50;3.65;;;7.60;99.90;;;;;;5040682;28;20055;-74
2024/03/02 00:07:55;;;;;;;5.75;3.83;;;7.60;99.90;;;;;;5048796;28;20509;-74
2024/03/02 00:10:28;;;;;;;5.18;3.70;;;7.60;99.90;;;;;;5027746;28;20044;-74
2024/03/02 00:12:55;;;;;;;4.38;3.35;;;7.60;99.90;;;;;;5031220;28;20053;-73
2024/03/02 00:15:37;;;;;;;5.18;3.53;;;7.60;99.90;;;;;;5045390;28;20048;-74
2024/03/02 00:18:04;;;;;;;5.38;4.18;;;7.60;99.90;;;;;;5039028;28;20063;-74
2024/03/02 00:20:31;;;;;;;5.10;3.65;;;7.60;99.90;;;;;;5033816;28;20036;-74
2024/03/02 00:23:05;;;;;;;5.20;3.90;;;7.60;99.90;;;;;;5048644;28;20052;-75
2024/03/02 00:25:53;;;;;;;6.53;3.80;;;7.60;99.90;;;;;;5029460;28;20033;-74
2024/03/02 00:28:36;;;;;;;5.65;3.83;;;7.70;99.90;;;;;;5048211;28;20057;-74
2024/03/02 00:31:13;;;;;;;5.65;3.85;;;7.70;99.90;;;;;;5052258;28;20047;-74
2024/03/02 00:33:49;;;;;;;4.45;3.60;;;7.70;99.90;;;;;;5046772;28;20102;-74
2024/03/02 00:36:16;;;;;;;4.50;3.70;;;7.70;99.90;;;;;;5057824;28;20088;-74
2024/03/02 00:38:53;;;;;;;4.57;3.45;;;7.70;99.90;;;;;;5038299;28;20040;-74
2024/03/02 00:41:29;;;;;;;5.07;3.70;;;7.70;99.90;;;;;;5044144;28;20041;-74
2024/03/02 00:44:05;;;;;;;5.68;3.50;;;7.70;99.90;;;;;;5030582;28;20114;-73
2024/03/02 00:46:36;;;;;;;4.60;3.70;;;7.80;99.90;;;;;;5037432;28;20043;-75
2024/03/02 00:49:17;;;;;;;5.45;3.33;;;7.80;99.90;;;;;;5046111;28;20378;-74
2024/03/02 00:51:48;;;;;;;6.18;3.55;;;7.80;99.90;;;;;;5035306;28;20134;-74
2024/03/02 00:54:15;;;;;;;5.18;3.53;;;7.80;99.90;;;;;;5037289;28;20128;-74
2024/03/02 00:56:42;;;;;;;4.95;3.65;;;7.90;99.90;;;;;;5041575;28;20098;-74
2024/03/02 00:59:08;;;;;;;5.57;3.85;;;7.80;99.90;;;;;;5049584;28;20504;-75
2024/03/02 01:01:34;;;;;;;4.82;3.60;;;7.80;99.90;;;;;;5042087;28;20045;-75
2024/03/02 01:04:00;;;;;;;4.70;3.78;;;7.80;99.90;;;;;;5043601;28;20044;-77
2024/03/02 01:06:26;;;;;;;5.60;3.25;;;7.80;99.90;;;;;;5053286;28;20036;-77
2024/03/02 01:08:52;;;;;;;4.55;3.25;;;7.80;99.90;;;;;;5047776;28;20122;-77
2024/03/02 01:11:18;;;;;;;5.72;3.65;;;7.80;99.90;;;;;;5032874;28;20040;-77
2024/03/02 01:13:47;;;;;;;4.55;3.40;;;7.80;99.90;;;;;;5059286;28;20400;-77
2024/03/02 01:16:13;;;;;;;4.95;3.42;;;7.80;99.90;;;;;;5058801;28;20121;-77
2024/03/02 01:18:39;;;;;;;4.53;3.58;;;7.80;99.90;;;;;;5045292;28;20497;-77
2024/03/02 01:21:05;;;;;;;4.97;3.60;;;7.80;99.90;;;;;;5030847;28;20044;-77
2024/03/02 01:23:30;;;;;;;6.03;4.00;;;7.70;99.90;;;;;;5049233;28;20559;-77
2024/03/02 01:25:56;;;;;;;5.25;3.55;;;7.80;99.90;;;;;;5038166;28;20129;-77
2024/03/02 01:28:22;;;;;;;4.82;3.70;;;7.70;99.90;;;;;;5021627;28;20523;-76
2024/03/02 01:30:49;;;;;;;6.28;3.88;;;7.70;99.90;;;;;;5039809;28;20056;-76
2024/03/02 01:33:16;;;;;;;5.32;3.97;;;7.70;99.90;;;;;;5051081;28;20285;-76
2024/03/02 01:35:42;;;;;;;5.32;3.78;;;7.70;99.90;;;;;;5051398;28;20104;-76
2024/03/02 01:38:07;;;;;;;4.85;3.85;;;7.70;99.90;;;;;;5049539;28;20564;-76
2024/03/02 01:40:37;;;;;;;5.25;4.05;;;7.70;99.90;;;;;;5042347;28;20051;-77
2024/03/02 01:43:07;;;;;;;5.07;3.60;;;7.60;99.90;;;;;;5041026;28;20041;-76
2024/03/02 01:45:33;;;;;;;5.22;3.90;;;7.70;99.90;;;;;;5047550;28;20043;-77
2024/03/02 01:47:59;;;;;;;5.20;3.67;;;7.60;99.90;;;;;;5029653;28;20226;-76
2024/03/02 01:50:31;;;;;;;4.82;3.72;;;7.70;99.90;;;;;;5047291;28;20060;-75
2024/03/02 01:52:57;;;;;;;5.97;3.63;;;7.70;99.90;;;;;;5046696;28;20054;-77
2024/03/02 01:55:23;;;;;;;4.78;3.63;;;7.70;99.90;;;;;;5043912;28;20078;-77
2024/03/02 01:57:50;;;;;;;4.38;3.53;;;7.70;99.90;;;;;;5041063;28;20550;-77
2024/03/02 02:00:17;;;;;;;6.43;3.70;;;7.70;99.90;;;;;;5041826;28;20150;-77
2024/03/02 02:02:43;;;;;;;6.28;4.10;;;7.70;99.90;;;;;;5040477;28;20053;-77
2024/03/02 02:05:10;;;;;;;5.45;3.95;;;7.60;99.90;;;;;;5054429;28;20572;-77
2024/03/02 02:07:36;;;;;;;5.75;4.30;;;7.70;99.90;;;;;;5027913;28;20041;-77
2024/03/02 02:10:02;;;;;;;4.30;3.60;;;7.70;99.90;;;;;;5045530;28;20404;-77
2024/03/02 02:12:28;;;;;;;7.13;4.22;;;7.70;99.90;;;;;;5051281;28;20044;-76
2024/03/02 02:14:53;;;;;;;5.22;3.60;;;7.70;99.90;;;;;;5053039;28;20063;-76
2024/03/02 02:17:20;;;;;;;5.75;3.88;;;7.70;99.90;;;;;;5031245;28;20056;-77
2024/03/02 02:19:46;;;;;;;4.55;3.50;;;7.70;99.90;;;;;;5043806;28;20045;-77
2024/03/02 02:22:12;;;;;;;5.00;3.65;;;7.70;99.90;;;;;;5036082;28;20091;-77
2024/03/02 02:24:41;;;;;;;6.22;3.95;;;7.70;99.90;;;;;;5052466;28;20048;-77
2024/03/02 02:27:08;;;;;;;5.37;4.17;;;7.60;99.90;;;;;;5026060;28;20314;-76
2024/03/02 02:29:34;;;;;;;6.97;3.50;;;7.70;99.90;;;;;;5034399;28;20370;-76
2024/03/02 02:32:00;;;;;;;5.28;3.47;;;7.70;99.90;;;;;;5045202;28;20051;-76
2024/03/02 02:34:26;;;;;;;4.78;3.33;;;7.70;99.90;;;;;;5045960;28;20275;-76
2024/03/02 02:36:52;;;;;;;5.65;3.78;;;7.80;99.90;;;;;;5026385;28;20052;-76
2024/03/02 02:39:22;;;;;;;4.53;3.45;;;7.70;99.90;;;;;;5041890;28;20033;-76
2024/03/02 02:41:48;;;;;;;5.15;3.65;;;7.70;99.90;;;;;;5033582;28;20035;-76
2024/03/02 02:44:14;;;;;;;4.47;3.40;;;7.80;99.90;;;;;;5049857;28;20480;-76
2024/03/02 02:46:40;;;;;;;4.32;3.40;;;7.80;99.90;;;;;;5040169;28;20048;-76
2024/03/02 02:49:07;;;;;;;5.82;3.60;;;7.80;99.90;;;;;;5046815;28;20131;-76
2024/03/02 02:51:33;;;;;;;4.88;3.80;;;7.90;99.90;;;;;;5023773;28;21800;-77
2024/03/02 02:53:59;;;;;;;5.10;3.45;;;7.90;99.90;;;;;;5037219;28;20473;-77
2024/03/02 02:56:24;;;;;;;4.88;3.42;;;8.00;99.90;;;;;;5043640;28;20122;-77
2024/03/02 02:58:50;;;;;;;4.95;3.45;;;8.00;99.90;;;;;;5028458;28;20174;-77
2024/03/02 03:01:19;;;;;;;5.90;3.42;;;7.90;99.90;;;;;;5036490;28;20064;-76
2024/03/02 03:03:45;;;;;;;4.22;3.10;;;8.00;99.90;;;;;;5010508;28;20119;-77
2024/03/02 03:06:12;;;;;;;4.93;3.55;;;8.00;99.90;;;;;;5020036;28;20143;-76
2024/03/02 03:08:38;;;;;;;4.75;3.70;;;8.00;99.90;;;;;;5023699;28;20455;-76
2024/03/02 03:11:04;;;;;;;4.85;3.47;;;8.00;99.90;;;;;;5034864;28;20497;-76
2024/03/02 03:13:34;;;;;;;5.47;3.20;;;8.00;99.90;;;;;;5024222;28;20040;-76
2024/03/02 03:16:00;;;;;;;5.43;3.60;;;8.00;99.90;;;;;;5039956;28;20068;-77
2024/03/02 03:18:26;;;;;;;4.85;3.20;;;8.00;99.90;;;;;;5029179;28;20083;-76
2024/03/02 03:20:51;;;;;;;5.95;3.30;;;8.00;99.90;;;;;;5037362;28;20206;-76
2024/03/02 03:23:17;;;;;;;4.20;3.25;;;8.10;99.90;;;;;;5023802;28;20086;-76
2024/03/02 03:25:43;;;;;;;4.65;3.10;;;8.10;99.90;;;;;;5017398;28;20103;-76
2024/03/02 03:28:09;;;;;;;4.47;2.80;;;8.10;99.90;;;;;;5029118;28;20036;-75
2024/03/02 03:30:37;;;;;;;5.20;3.35;;;8.10;99.90;;;;;;5038224;28;20037;-76
2024/03/02 03:33:05;;;;;;;4.90;3.45;;;8.10;99.90;;;;;;5029252;28;20041;-75
2024/03/02 03:35:32;;;;;;;4.78;3.10;;;8.10;99.90;;;;;;5010372;28;20477;-78
2024/03/02 03:37:58;;;;;;;5.18;3.22;;;8.10;99.90;;;;;;5016675;28;20053;-75
2024/03/02 03:40:24;;;;;;;4.57;2.88;;;8.10;99.90;;;;;;5018055;28;20051;-78
2024/03/02 03:42:50;;;;;;;4.53;3.10;;;8.10;99.90;;;;;;5032911;28;20041;-76
2024/03/02 03:45:16;;;;;;;3.88;2.70;;;8.10;99.90;;;;;;5041132;28;20391;-76
2024/03/02 03:47:42;;;;;;;5.78;3.38;;;8.10;99.90;;;;;;5038985;28;20045;-76
2024/03/02 03:50:08;;;;;;;4.95;2.90;;;8.10;99.90;;;;;;5027396;28;20489;-77
2024/03/02 03:52:34;;;;;;;4.85;2.80;;;8.10;99.90;;;;;;5012324;28;20048;-77
2024/03/02 03:55:00;;;;;;;10.55;2.80;;;8.10;99.90;;;;;;5030833;28;20053;-76
2024/03/02 03:57:26;;;;;;;3.90;2.95;;;8.20;99.90;;;;;;5037874;28;20221;-76
2024/03/02 03:59:53;;;;;;;4.70;2.80;;;8.10;99.90;;;;;;5044535;28;20079;-77
2024/03/02 04:02:18;;;;;;;4.07;3.13;;;8.20;99.90;;;;;;5026855;28;20049;-76
2024/03/02 04:04:44;;;;;;;4.63;2.60;;;8.20;99.90;;;;;;5053334;28;20040;-77
2024/03/02 04:07:10;;;;;;;5.70;3.13;;;8.10;99.90;;;;;;5030060;28;20055;-77
2024/03/02 04:09:36;;;;;;;4.63;3.30;;;8.10;99.90;;;;;;5032966;28;20481;-77
2024/03/02 04:12:02;;;;;;;6.38;3.30;;;8.10;99.90;;;;;;5034756;28;20063;-76
2024/03/02 04:14:30;;;;;;;4.70;3.40;;;8.10;99.90;;;;;;5044403;28;20044;-76
2024/03/02 04:16:56;;;;;;;4.82;3.10;;;8.10;99.90;;;;;;5039954;28;20068;-77
2024/03/02 04:19:22;;;;;;;4.30;3.15;;;8.10;99.90;;;;;;5039681;28;20706;-74
2024/03/02 04:21:48;;;;;;;5.32;3.50;;;8.00;99.90;;;;;;5022412;28;20075;-74
2024/03/02 04:24:17;;;;;;;4.78;3.30;;;8.00;99.90;;;;;;5021800;28;20130;-74
2024/03/02 04:26:42;;;;;;;5.57;3.42;;;8.00;99.90;;;;;;5019144;28;20080;-74
2024/03/02 04:29:08;;;;;;;7.35;3.17;;;8.00;99.90;;;;;;5042342;28;20087;-74
2024/03/02 04:31:34;;;;;;;4.55;3.15;;;7.90;99.90;;;;;;5034659;28;20475;-74
2024/03/02 04:33:59;;;;;;;4.95;3.05;;;7.90;99.90;;;;;;5031085;28;20060;-74
2024/03/02 04:36:25;;;;;;;4.85;3.47;;;8.00;99.90;;;;;;5041746;28;20033;-74
2024/03/02 04:38:51;;;;;;;5.07;3.65;;;7.90;99.90;;;;;;5029132;28;20550;-74
2024/03/02 04:41:17;;;;;;;4.72;3.05;;;7.90;99.90;;;;;;5019436;28;20397;-74
2024/03/02 04:43:43;;;;;;;5.22;3.78;;;7.90;99.90;;;;;;5019726;28;20049;-74
2024/03/02 04:46:08;;;;;;;4.45;3.40;;;7.90;99.90;;;;;;5028849;28;20051;-77
2024/03/02 04:48:37;;;;;;;5.30;3.47;;;7.90;99.90;;;;;;5038739;28;20393;-77
2024/03/02 04:51:03;;;;;;;5.53;3.70;;;7.90;99.90;;;;;;5027718;28;20048;-77
2024/03/02 04:53:34;;;;;;;6.15;3.60;;;7.90;99.90;;;;;;5046170;28;20047;-76
2024/03/02 04:58:43;;;;;;;5.55;3.35;;;7.90;99.90;;;;;;5046380;28;20048;-76
2024/03/02 05:01:10;;;;;;;4.18;3.28;;;7.90;99.90;;;;;;5038485;28;20063;-76
2024/03/02 05:03:36;;;;;;;6.57;3.75;;;7.80;99.90;;;;;;5046070;28;20048;-77
2024/03/02 05:06:02;;;;;;;5.05;3.45;;;7.80;99.90;;;;;;5042364;28;20124;-77
2024/03/02 05:08:28;;;;;;;4.57;3.30;;;7.80;99.90;;;;;;5042467;28;20040;-77
2024/03/02 05:10:53;;;;;;;4.43;3.33;;;7.80;99.90;;;;;;5026333;28;20385;-76
2024/03/02 05:13:20;;;;;;;4.72;3.03;;;7.80;99.90;;;;;;5022671;28;20036;-77
2024/03/02 05:15:46;;;;;;;5.28;3.20;;;7.80;99.90;;;;;;5043194;28;20045;-75
2024/03/02 05:18:12;;;;;;;4.15;3.30;;;7.80;99.90;;;;;;5044964;28;20052;-77
2024/03/02 05:20:38;;;;;;;4.63;3.28;;;7.80;99.90;;;;;;5044146;28;20231;-78
2024/03/02 05:23:03;;;;;;;4.65;3.30;;;7.70;99.90;;;;;;5048886;28;20127;-77
2024/03/02 05:25:29;;;;;;;5.45;3.63;;;7.70;99.90;;;;;;5023566;28;20045;-77
2024/03/02 05:27:55;;;;;;;4.10;3.20;;;7.70;99.90;;;;;;5027956;28;20053;-77
2024/03/02 05:30:21;;;;;;;6.30;3.78;;;7.70;99.90;;;;;;5027693;28;20151;-77
2024/03/02 05:32:47;;;;;;;4.72;3.42;;;7.70;99.90;;;;;;5055572;28;20078;-74
2024/03/02 05:35:13;;;;;;;4.65;3.38;;;7.70;99.90;;;;;;5039676;28;20095;-75
2024/03/02 05:37:39;;;;;;;5.10;3.45;;;7.70;99.90;;;;;;5051563;28;20400;-75
2024/03/02 05:40:05;;;;;;;5.50;3.47;;;7.70;99.90;;;;;;5035577;28;20044;-75
2024/03/02 05:42:34;;;;;;;4.68;3.63;;;7.70;99.90;;;;;;5043706;28;20079;-75
2024/03/02 05:45:01;;;;;;;5.07;3.30;;;7.70;99.90;;;;;;5047176;28;20312;-76
2024/03/02 05:47:27;;;;;;;4.70;3.10;;;7.70;99.90;;;;;;5053053;28;20102;-76
2024/03/02 05:49:53;;;;;;;5.43;3.38;;;7.70;99.90;;;;;;5030085;28;20049;-77
2024/03/02 05:52:20;;;;;;;10.82;3.75;;;7.70;99.90;;;;;;5047789;28;20040;-76
2024/03/02 05:54:46;;;;;;;7.38;3.40;;;7.70;99.90;;;;;;5055509;28;20041;-76
2024/03/02 05:57:33;;;;;;;5.35;3.03;;;7.70;99.90;;;;;;5030985;28;20098;-76
2024/03/02 05:59:59;;;;;;;4.18;2.95;;;7.70;99.90;;;;;;5041879;28;20080;-76
2024/03/02 06:02:25;;;;;;;5.20;2.72;;;7.70;99.90;;;;;;5046856;28;21956;-76
2024/03/02 06:04:53;;;;;;;4.95;3.17;;;7.70;99.90;;;;;;5030003;28;20048;-76
2024/03/02 06:07:19;;;;;;;4.25;2.83;;;7.70;99.90;;;;;;5050145;28;20044;-76
2024/03/02 06:09:48;;;;;;;3.90;2.97;;;7.70;99.90;;;;;;5029427;28;20056;-76
2024/03/02 06:12:14;;;;;;;4.07;2.88;;;7.70;99.90;;;;;;5028353;28;20051;-76
2024/03/02 06:14:39;;;;;;;5.00;3.42;;;7.70;99.90;;;;;;5031470;28;20044;-76
2024/03/02 06:17:05;;;;;;;6.45;3.17;;;7.70;99.90;;;;;;5035763;28;20058;-78
2024/03/02 06:19:33;;;;;;;5.15;3.05;;;7.70;99.90;;;;;;5027560;28;20041;-77
2024/03/02 06:21:59;;;;;;;4.93;2.78;;;7.60;99.90;;;;;;5054243;28;20511;-75
2024/03/02 06:24:26;;;;;;;6.43;3.25;;;7.60;99.90;;;;;;5041640;28;20070;-78
2024/03/02 06:26:52;;;;;;;4.40;2.83;;;7.50;99.90;;;;;;5049701;28;20462;-78
2024/03/02 06:29:17;;;;;;;4.78;2.97;;;7.50;99.90;;;;;;5027282;28;20086;-77
2024/03/02 06:31:43;;;;;;;4.00;2.92;;;7.40;99.90;;;;;;5053461;28;20523;-76
2024/03/02 06:34:09;;;;;;;6.35;3.42;;;7.40;99.90;;;;;;5051601;28;20036;-76
2024/03/02 06:36:35;;;;;;;5.93;3.00;;;7.40;99.90;;;;;;5046981;28;20412;-76
2024/03/02 06:39:00;;;;;;;4.30;3.17;;;7.30;99.90;;;;;;5038246;28;20113;-76
2024/03/02 06:41:29;;;;;;;4.43;3.13;;;7.30;99.90;;;;;;5032533;28;20039;-76
2024/03/02 06:43:59;;;;;;;7.32;3.60;;;7.20;99.90;;;;;;5047399;28;20048;-77
2024/03/02 06:46:25;;;;;;;4.22;2.92;;;7.10;99.90;;;;;;5026373;28;20052;-76
2024/03/02 06:48:51;;;;;;;4.47;2.60;;;7.10;99.90;;;;;;5027367;28;20091;-76
2024/03/02 06:51:17;;;;;;;2.65;1.90;;;7.10;99.90;;;;;;5029564;28;20355;-77
2024/03/02 06:53:43;;;;;;;4.78;2.65;;;7.10;99.90;;;;;;5046150;28;20129;-77
2024/03/02 06:56:09;;;;;;;3.53;1.92;;;7.10;99.90;;;;;;5055632;28;20048;-76
2024/03/02 06:58:35;;;;;;;3.00;1.88;;;7.10;99.90;;;;;;5031139;28;20280;-76
2024/03/02 07:01:00;;;;;;;3.80;2.17;;;7.10;99.90;;;;;;5027896;28;20055;-76
2024/03/02 07:03:26;;;;;;;4.65;2.10;;;7.10;99.90;;;;;;5043797;28;20392;-76
2024/03/02 07:05:52;;;;;;;3.35;1.63;;;7.20;99.90;;;;;;5042757;28;20085;-77
2024/03/02 07:08:18;;;;;;;4.93;2.20;;;7.20;99.90;;;;;;5035625;28;20044;-77
2024/03/02 07:10:43;;;;;;;3.38;1.40;;;7.30;99.90;;;;;;5037335;28;20055;-77
2024/03/02 07:13:09;;;;;;;3.47;1.10;;;7.30;99.90;;;;;;5028877;28;20063;-76
2024/03/02 07:18:23;;;;;;;4.57;1.75;;;7.40;99.90;;;;;;5020280;28;20464;-77
2024/03/02 07:20:49;;;;;;;2.35;1.13;;;7.50;99.90;;;;;;5029614;28;20516;-75
2024/03/02 07:23:15;;;;;;;2.28;1.20;;;7.50;99.90;;;;;;5031333;28;20043;-75
2024/03/02 07:25:41;;;;;;;2.40;1.50;;;7.50;99.90;;;;;;5042139;28;20248;-72
2024/03/02 07:28:07;;;;;;;2.08;0.90;;;7.60;99.90;;;;;;5043236;28;20070;-75
2024/03/02 07:30:33;;;;;;;2.78;1.00;;;7.60;99.90;;;;;;5031796;28;20094;-75
2024/03/02 07:32:59;;;;;;;3.45;1.08;;;7.60;99.90;;;;;;5026396;28;20131;-74
2024/03/02 07:35:28;;;;;;;2.50;1.10;;;7.70;99.90;;;;;;5041541;28;20135;-75
2024/03/02 07:37:55;;;;;;;1.83;1.00;;;7.70;99.90;;;;;;5033918;28;20045;-74
2024/03/02 07:40:21;;;;;;;1.17;0.57;;;7.70;99.90;;;;;;5027013;28;20412;-75
2024/03/02 07:42:46;;;;;;;1.45;0.70;;;7.80;99.90;;;;;;5030223;28;20045;-75
2024/03/02 07:45:12;;;;;;;1.35;0.60;;;7.80;99.90;;;;;;5043273;28;20051;-75
2024/03/02 07:47:38;;;;;;;1.23;0.50;;;7.90;99.90;;;;;;5043741;28;20036;-75
2024/03/02 07:50:06;;;;;;;1.77;0.68;;;7.90;99.90;;;;;;5043512;28;20041;-74
2024/03/02 07:52:33;;;;;;;3.97;2.03;;;8.00;99.90;;;;;;5044929;28;20044;-75
2024/03/02 07:54:59;;;;;;;4.03;2.90;;;8.10;99.90;;;;;;5043291;28;20151;-75
2024/03/02 07:57:25;;;;;;;2.13;1.27;;;8.10;99.90;;;;;;5041055;28;20083;-75
2024/03/02 07:59:51;;;;;;;4.13;2.50;;;8.10;99.90;;;;;;5040568;28;20040;-75
2024/03/02 08:02:17;;;;;;;3.80;2.38;;;8.20;99.90;;;;;;5028480;28;20053;-75
2024/03/02 08:04:43;;;;;;;4.95;2.63;;;8.20;99.90;;;;;;5035055;28;20051;-74
2024/03/02 08:07:09;;;;;;;1.85;1.00;;;8.30;99.90;;;;;;5043965;28;20051;-75
2024/03/02 08:09:35;;;;;;;2.40;1.10;;;8.30;99.90;;;;;;5025043;28;20037;-75
2024/03/02 08:12:00;;;;;;;2.00;1.00;;;8.30;99.90;;;;;;5028610;28;20047;-74
2024/03/02 08:14:26;;;;;;;2.40;1.30;;;8.40;99.90;;;;;;5045116;28;20125;-74
2024/03/02 08:16:52;;;;;;;2.78;1.90;;;8.50;99.90;;;;;;5034245;28;20079;-74
2024/03/02 08:19:18;;;;;;;2.35;1.70;;;8.60;99.90;;;;;;5024557;28;20044;-74
2024/03/02 08:21:44;;;;;;;2.90;1.40;;;8.80;99.90;;;;;;5047874;28;20516;-74
2024/03/02 08:24:10;;;;;;;3.63;1.33;;;9.00;99.90;;;;;;5035335;28;20139;-73
2024/03/02 08:26:36;;;;;;;3.78;1.50;;;9.10;99.90;;;;;;5049186;28;20154;-73
2024/03/02 08:29:03;;;;;;;2.60;1.40;;;9.30;99.90;;;;;;5046220;28;20520;-74
2024/03/02 08:31:29;;;;;;;2.92;1.30;;;9.50;99.90;;;;;;5038850;28;20112;-75
2024/03/02 08:33:56;;;;;;;3.08;1.40;;;9.60;99.90;;;;;;5042802;28;20076;-74
2024/03/02 08:36:23;;;;;;;2.95;1.15;;;9.80;99.90;;;;;;5052559;28;20052;-74
2024/03/02 08:38:52;;;;;;;4.53;1.40;;;9.90;99.90;;;;;;5042274;28;20068;-74
2024/03/02 08:41:18;;;;;;;3.20;1.55;;;9.90;99.90;;;;;;5053371;28;20036;-74
2024/03/02 08:43:44;;;;;;;3.15;2.10;;;9.90;99.90;;;;;;5050213;28;20031;-74
2024/03/02 08:46:10;;;;;;;3.47;2.28;;;9.80;99.90;;;;;;5044630;28;20052;-74
2024/03/02 08:48:36;;;;;;;4.15;2.38;;;9.70;99.90;;;;;;5031060;28;20573;-74
2024/03/02 08:51:07;;;;;;;3.92;2.13;;;9.60;99.90;;;;;;5047093;28;20048;-74
2024/03/02 08:53:33;;;;;;;4.47;2.90;;;9.50;99.90;;;;;;5030633;28;20045;-74
2024/03/02 08:55:59;;;;;;;4.55;2.97;;;9.50;99.90;;;;;;5034289;28;20450;-74
2024/03/02 08:58:25;;;;;;;4.60;2.65;;;9.40;99.90;;;;;;5027764;28;20059;-75
2024/03/02 09:00:51;;;;;;;5.18;2.80;;;9.50;99.90;;;;;;5045722;28;20056;-74
2024/03/02 09:03:16;;;;;;;4.50;2.22;;;9.50;99.90;;;;;;5038071;28;20058;-75
2024/03/02 09:05:42;;;;;;;4.00;2.03;;;9.50;99.90;;;;;;5054196;28;20392;-75
2024/03/02 09:08:08;;;;;;;4.93;2.13;;;9.60;99.90;;;;;;5030566;28;20481;-75
2024/03/02 09:10:34;;;;;;;4.10;1.63;;;9.60;99.90;;;;;;5044675;28;20048;-75
2024/03/02 09:13:00;;;;;;;3.35;1.80;;;9.70;99.90;;;;;;5040879;28;20055;-74
2024/03/02 09:15:26;;;;;;;3.90;2.22;;;9.80;99.90;;;;;;5033447;28;20056;-74
2024/03/02 09:17:52;;;;;;;3.03;1.70;;;9.80;99.90;;;;;;5035564;28;20045;-74
2024/03/02 09:20:17;;;;;;;4.38;1.92;;;9.80;99.90;;;;;;5036343;28;20135;-74
2024/03/02 09:22:43;;;;;;;4.15;1.50;;;9.70;99.90;;;;;;5045888;28;20044;-73
2024/03/02 09:25:12;;;;;;;4.63;1.90;;;9.70;99.90;;;;;;5037005;28;20037;-74
2024/03/02 09:27:38;;;;;;;2.92;1.33;;;9.70;99.90;;;;;;5047086;28;20037;-74
2024/03/02 09:30:09;;;;;;;2.92;1.33;;;9.70;99.90;;;;;;5036498;28;20051;-73
2024/03/02 09:32:34;;;;;;;;;;;9.70;99.90;;;;;;5049655;28;20047;-74
2024/03/02 09:35:00;;;;;;;2.92;1.30;;;9.70;99.90;;;;;;5044713;28;20003;-73
2024/03/02 09:37:26;;;;;;;1.88;1.10;;;9.70;99.90;;;;;;5050202;28;20072;-73
2024/03/02 09:39:52;;;;;;;3.17;1.45;;;9.70;99.90;;;;;;5042340;28;20041;-74
2024/03/02 09:42:18;;;;;;;3.65;1.30;;;9.70;99.90;;;;;;5043450;28;20396;-74
2024/03/02 09:44:45;;;;;;;6.90;1.45;;;9.70;99.90;;;;;;5048021;28;20072;-75
2024/03/02 09:47:11;;;;;;;2.40;1.15;;;9.60;99.90;;;;;;5032423;28;20052;-75
2024/03/02 09:49:36;;;;;;;3.88;1.30;;;9.60;99.90;;;;;;5045790;28;20576;-75
2024/03/02 09:52:05;;;;;;;2.53;1.20;;;9.60;99.90;;;;;;5046525;28;20048;-75
2024/03/02 09:54:31;;;;;;;2.22;1.15;;;9.60;99.90;;;;;;5051151;28;20032;-74
2024/03/02 09:56:57;;;;;;;1.58;1.00;;;9.60;99.90;;;;;;5039111;28;20748;-74
2024/03/02 09:59:23;;;;;;;3.33;1.10;;;9.60;99.90;;;;;;5043983;28;20036;-75
2024/03/02 10:02:01;;;;;;;3.30;1.30;;;9.70;99.90;;;;;;5039215;28;20094;-75
2024/03/02 10:04:28;;;;;;;3.75;1.50;;;9.70;99.90;;;;;;5048844;28;20120;-75
2024/03/02 10:07:30;;;;;;;4.53;2.53;;;9.70;99.90;;;;;;5032690;28;20068;-75
2024/03/02 10:09:55;;;;;;;5.80;2.33;;;9.70;99.90;;;;;;5022807;28;20041;-75
2024/03/02 10:12:22;;;;;;;4.25;1.92;;;9.70;99.90;;;;;;5022933;28;20551;-75
2024/03/02 10:14:52;;;;;;;3.47;2.05;;;9.80;99.90;;;;;;5030100;28;20048;-75
2024/03/02 10:17:18;;;;;;;3.33;2.15;;;9.80;99.90;;;;;;5028975;28;20040;-75
2024/03/02 10:19:44;;;;;;;3.42;2.00;;;9.80;99.90;;;;;;5051541;28;20047;-74
2024/03/02 10:22:10;;;;;;;3.47;2.22;;;9.80;99.90;;;;;;5044107;28;20053;-75
2024/03/02 10:24:46;;;;;;;3.05;1.80;;;9.80;99.90;;;;;;5039518;28;20650;-75
2024/03/02 10:27:23;;;;;;;3.22;1.80;;;9.80;99.90;;;;;;5048204;28;20401;-74
2024/03/02 10:29:50;;;;;;;4.78;1.55;;;9.80;99.90;;;;;;5041194;28;20049;-74
2024/03/02 10:32:16;;;;;;;3.33;1.45;;;9.80;99.90;;;;;;5043437;28;20087;-75
2024/03/02 10:34:49;;;;;;;4.30;1.67;;;9.90;99.90;;;;;;5034650;28;20050;-74
2024/03/02 10:37:17;;;;;;;2.20;1.50;;;9.90;99.90;;;;;;5047754;28;20048;-74
2024/03/02 10:39:43;;;;;;;3.00;1.48;;;10.00;99.90;;;;;;5027618;28;20930;-75
2024/03/02 10:42:09;;;;;;;1.95;1.33;;;10.10;99.90;;;;;;5045978;28;20064;-74
2024/03/02 10:44:35;;;;;;;2.58;1.05;;;10.00;99.90;;;;;;5043914;28;20049;-74
2024/03/02 10:47:06;;;;;;;3.20;1.38;;;10.10;99.90;;;;;;5027407;28;21509;-74
2024/03/02 10:49:32;;;;;;;1.90;1.02;;;10.10;99.90;;;;;;5044465;28;20040;-74
2024/03/02 10:51:59;;;;;;;3.53;0.88;;;10.30;99.90;;;;;;5030636;28;20047;-74
2024/03/02 10:54:26;;;;;;;1.80;0.80;;;10.40;99.90;;;;;;5027283;28;20071;-74
2024/03/02 10:56:54;;;;;;;3.60;0.80;;;10.40;99.90;;;;;;5042854;28;20162;-75
2024/03/02 10:59:51;;;;;;;2.40;1.02;;;10.50;99.90;;;;;;5045132;28;20528;-76
2024/03/02 11:02:19;;;;;;;3.15;0.70;;;10.60;99.90;;;;;;5039091;28;20067;-75
2024/03/02 11:04:48;;;;;;;3.67;0.70;;;10.70;99.90;;;;;;5028703;28;20067;-75
2024/03/02 11:07:13;;;;;;;2.25;0.88;;;10.80;99.90;;;;;;5054411;28;20040;-75
2024/03/02 11:09:59;;;;;;;2.45;0.80;;;10.90;99.90;;;;;;5048279;28;20053;-76
2024/03/02 11:13:09;;;;;;;1.60;0.88;;;11.00;99.90;;;;;;5027412;28;20040;-76
2024/03/02 11:15:36;;;;;;;4.40;0.97;;;11.10;99.90;;;;;;5002795;28;20119;-75
2024/03/02 11:18:06;;;;;;;2.85;0.82;;;11.10;99.90;;;;;;5003866;28;20304;-76
2024/03/02 11:20:38;;;;;;;3.28;0.65;;;11.00;99.90;;;;;;5025458;28;20063;-74
2024/03/02 11:23:06;;;;;;;1.63;0.80;;;11.00;99.90;;;;;;5033359;28;20293;-74
2024/03/02 11:25:32;;;;;;;1.88;0.80;;;10.90;99.90;;;;;;5043607;28;20459;-76
2024/03/02 11:28:03;;;;;;;3.33;0.95;;;10.90;99.90;;;;;;5047693;28;20142;-75
2024/03/02 11:30:32;;;;;;;3.30;0.80;;;11.00;99.90;;;;;;5042682;28;20053;-75
2024/03/02 11:33:08;;;;;;;3.83;1.05;;;11.10;99.90;;;;;;5037081;28;20051;-75
2024/03/02 11:35:48;;;;;;;2.63;0.90;;;11.20;99.90;;;;;;5047076;28;20396;-75
2024/03/02 11:38:14;;;;;;;3.20;0.82;;;11.30;99.90;;;;;;5045776;28;20099;-75
2024/03/02 11:40:40;;;;;;;3.33;0.82;;;11.40;99.90;;;;;;5044612;28;20517;-75
2024/03/02 11:43:07;;;;;;;3.25;0.95;;;11.40;99.90;;;;;;5043947;28;20075;-75
2024/03/02 11:45:39;;;;;;;2.58;1.13;;;11.50;99.90;;;;;;5029977;28;20037;-75
2024/03/02 11:48:08;;;;;;;2.80;0.88;;;11.50;99.90;;;;;;5030937;28;20050;-75
2024/03/02 11:50:40;;;;;;;4.28;1.05;;;11.50;99.90;;;;;;5026772;28;20665;-75
2024/03/02 11:53:08;;;;;;;2.10;0.85;;;11.60;99.90;;;;;;5030352;28;20040;-75
2024/03/02 11:55:39;;;;;;;3.75;0.93;;;11.60;99.90;;;;;;5052832;28;20083;-75
2024/03/02 11:58:05;;;;;;;2.83;0.90;;;11.70;99.90;;;;;;5049147;28;20471;-75
2024/03/02 12:00:34;;;;;;;2.33;0.88;;;11.70;99.90;;;;;;5042564;28;20566;-75
2024/03/02 12:03:12;;;;;;;5.43;1.13;;;11.70;99.90;;;;;;5050072;28;20080;-75
2024/03/02 12:05:38;;;;;;;3.08;1.05;;;11.60;99.90;;;;;;5032022;28;20447;-75
2024/03/02 12:08:06;;;;;;;2.67;0.98;;;11.50;99.90;;;;;;5046655;28;20036;-75
2024/03/02 12:10:36;;;;;;;1.85;0.70;;;11.50;99.90;;;;;;5045767;28;20597;-76
2024/03/02 12:13:04;;;;;;;2.90;1.05;;;11.60;99.90;;;;;;5028647;28;20055;-75
2024/03/02 12:15:32;;;;;;;2.35;0.93;;;11.70;99.90;;;;;;5042678;28;20141;-75
2024/03/02 12:17:59;;;;;;;3.53;1.00;;;11.80;99.90;;;;;;5026512;28;20532;-75
2024/03/02 12:20:26;;;;;;;3.28;0.95;;;11.80;99.90;;;;;;5048333;28;20638;-74
2024/03/02 12:22:53;;;;;;;2.25;0.90;;;11.80;99.90;;;;;;5027577;28;20134;-73
2024/03/02 12:25:23;;;;;;;2.97;1.10;;;11.90;99.90;;;;;;5032493;28;20508;-74
2024/03/02 12:27:51;;;;;;;2.72;1.00;;;11.90;99.90;;;;;;5033332;28;20048;-73
2024/03/02 12:30:18;;;;;;;2.95;0.88;;;12.00;99.90;;;;;;5046337;28;20058;-75
2024/03/02 12:32:44;;;;;;;3.30;1.30;;;12.10;99.90;;;;;;5030316;28;20062;-74
2024/03/02 12:35:14;;;;;;;4.22;1.40;;;12.20;99.90;;;;;;5034807;28;20605;-73
2024/03/02 12:37:51;;;;;;;3.10;1.40;;;12.30;99.90;;;;;;5036847;28;20091;-73
2024/03/02 12:40:18;;;;;;;4.05;1.70;;;12.30;99.90;;;;;;5039992;28;20045;-73
2024/03/02 12:42:45;;;;;;;2.92;1.70;;;12.30;99.90;;;;;;5052374;28;20053;-73
2024/03/02 12:45:11;;;;;;;3.60;2.25;;;12.20;99.90;;;;;;5043167;28;20060;-74
2024/03/02 12:47:39;;;;;;;3.95;2.17;;;12.20;99.90;;;;;;5050165;28;20044;-74
2024/03/02 12:50:05;;;;;;;3.47;2.25;;;12.30;99.90;;;;;;5044777;28;20127;-73
2024/03/02 12:52:34;;;;;;;3.58;2.33;;;12.40;99.90;;;;;;5046979;28;20075;-74
2024/03/02 12:55:05;;;;;;;4.45;2.22;;;12.50;99.90;;;;;;5026233;28;20131;-74
2024/03/02 12:57:32;;;;;;;4.50;2.58;;;12.50;99.90;;;;;;5046063;28;20048;-74
2024/03/02 13:00:11;;;;;;;3.35;2.30;;;12.60;99.90;;;;;;5044744;28;20036;-73
2024/03/02 13:02:40;;;;;;;3.50;2.00;;;12.70;99.90;;;;;;5031552;28;20040;-74